Weather at Fazenda São Marcos Airport

Public forecast

Using degrees Celsius for public forecast. Weather courtesy of forecast.io.

Closest aviation weather report (METAR) to Fazenda São Marcos Airport

Closest report is Bacacheri Airport, 91.8 nm (170.1 km) SSW. Retrieved 2020/09/18 16:00 UTC (33 minutes ago):

SBBI 181600Z 32006KT CAVOK 26/13 Q1015

Closest aviation forecast (TAF) to Fazenda São Marcos Airport

Closest forecast is Bacacheri Airport, 91.8 nm (170.1 km) SSW. Retrieved 2020/09/18 12:27 UTC (4 hours ago):

TAF SBBI 181000Z 1812/1824 00000KT 8000 NSC TN17/1812Z TX21/1817Z BECMG 1812/1814 CAVOK RMK PEC